TAG261 ESGG-ESSA
Flight info
| Callsign | TAG261 |
|---|---|
| Flight time | 0h 42m |
| Altitude | 31000 |
| Route | LABAN N873 ARS T317 ELTOK |
| Aircraft | B738/M-SDE2E3FGHIRWXY/LB1 |
Departure
| Time | 2026-05-06 13:26 |
|---|---|
| Airport | Göteborg Landvetter Airport (ESGG) |
Arrival
| Time | 2026-05-06 14:08 |
|---|---|
| Airport | Stockholm-Arlanda Airport (ESSA) |
| Time | Latitude | Longitude | Altitude | Speed | Heading |
|---|---|---|---|---|---|
| 2026-05-06 13:05 | 57.66976 | 12.29484 | 510 ft | 0 kts | 116° |
| 2026-05-06 13:15 | 57.66981 | 12.29467 | 510 ft | 2 kts | 116° |
| 2026-05-06 13:15 | 57.66988 | 12.29439 | 510 ft | 2 kts | 118° |
| 2026-05-06 13:15 | 57.66997 | 12.29412 | 510 ft | 2 kts | 124° |
| 2026-05-06 13:16 | 57.67008 | 12.29389 | 510 ft | 2 kts | 160° |
| 2026-05-06 13:16 | 57.67021 | 12.29390 | 510 ft | 1 kts | 206° |
| 2026-05-06 13:16 | 57.67023 | 12.29391 | 510 ft | 0 kts | 206° |
| 2026-05-06 13:21 | 57.67000 | 12.29370 | 510 ft | 10 kts | 207° |
| 2026-05-06 13:21 | 57.66984 | 12.29295 | 509 ft | 6 kts | 285° |
| 2026-05-06 13:21 | 57.67009 | 12.29217 | 509 ft | 8 kts | 316° |
| 2026-05-06 13:21 | 57.67056 | 12.29201 | 510 ft | 6 kts | 18° |
| 2026-05-06 13:22 | 57.67094 | 12.29233 | 510 ft | 6 kts | 26° |
| 2026-05-06 13:22 | 57.67141 | 12.29275 | 511 ft | 9 kts | 26° |
| 2026-05-06 13:22 | 57.67213 | 12.29340 | 511 ft | 15 kts | 24° |
| 2026-05-06 13:22 | 57.67315 | 12.29432 | 512 ft | 16 kts | 26° |
| 2026-05-06 13:23 | 57.67406 | 12.29460 | 513 ft | 0 kts | 332° |
| 2026-05-06 13:23 | 57.67419 | 12.29442 | 513 ft | 8 kts | 319° |
| 2026-05-06 13:23 | 57.67445 | 12.29341 | 513 ft | 9 kts | 289° |
| 2026-05-06 13:23 | 57.67458 | 12.29227 | 513 ft | 9 kts | 271° |
| 2026-05-06 13:24 | 57.67448 | 12.29109 | 511 ft | 10 kts | 248° |
| 2026-05-06 13:24 | 57.67405 | 12.29000 | 511 ft | 10 kts | 221° |
| 2026-05-06 13:24 | 57.67399 | 12.28994 | 511 ft | 0 kts | 205° |
| 2026-05-06 13:25 | 57.67396 | 12.28992 | 511 ft | 2 kts | 205° |
| 2026-05-06 13:25 | 57.67337 | 12.28938 | 511 ft | 16 kts | 206° |
| 2026-05-06 13:25 | 57.67060 | 12.28681 | 511 ft | 87 kts | 206° |
| 2026-05-06 13:26 | 57.66289 | 12.27962 | 499 ft | 156 kts | 207° |
| 2026-05-06 13:26 | 57.65275 | 12.26954 | 1146 ft | 166 kts | 211° |
| 2026-05-06 13:26 | 57.64202 | 12.25931 | 1983 ft | 181 kts | 208° |
| 2026-05-06 13:26 | 57.62937 | 12.25127 | 2580 ft | 207 kts | 188° |
| 2026-05-06 13:27 | 57.61517 | 12.25784 | 3368 ft | 213 kts | 161° |
| 2026-05-06 13:27 | 57.60108 | 12.26849 | 3848 ft | 224 kts | 160° |
| 2026-05-06 13:27 | 57.58662 | 12.27992 | 4425 ft | 228 kts | 161° |
| 2026-05-06 13:27 | 57.57324 | 12.29643 | 4963 ft | 238 kts | 131° |
| 2026-05-06 13:28 | 57.56702 | 12.32503 | 5067 ft | 258 kts | 91° |
| 2026-05-06 13:28 | 57.57076 | 12.35834 | 5074 ft | 265 kts | 66° |
| 2026-05-06 13:28 | 57.57813 | 12.38988 | 5096 ft | 266 kts | 64° |
| 2026-05-06 13:28 | 57.58563 | 12.42107 | 5057 ft | 263 kts | 65° |
| 2026-05-06 13:29 | 57.59306 | 12.45356 | 5201 ft | 283 kts | 66° |
| 2026-05-06 13:29 | 57.60072 | 12.48794 | 5967 ft | 288 kts | 66° |
| 2026-05-06 13:29 | 57.60831 | 12.52262 | 6899 ft | 291 kts | 68° |
| 2026-05-06 13:29 | 57.61561 | 12.55807 | 7820 ft | 294 kts | 66° |
| 2026-05-06 13:30 | 57.62627 | 12.59025 | 8669 ft | 294 kts | 43° |
| 2026-05-06 13:30 | 57.64226 | 12.61377 | 9600 ft | 292 kts | 32° |
| 2026-05-06 13:30 | 57.65928 | 12.63541 | 10380 ft | 300 kts | 32° |
| 2026-05-06 13:30 | 57.67728 | 12.65816 | 10647 ft | 325 kts | 31° |
| 2026-05-06 13:31 | 57.69646 | 12.68210 | 10848 ft | 347 kts | 32° |
| 2026-05-06 13:31 | 57.71687 | 12.70771 | 11399 ft | 358 kts | 32° |
| 2026-05-06 13:31 | 57.73762 | 12.73387 | 12231 ft | 359 kts | 32° |
| 2026-05-06 13:31 | 57.75839 | 12.76022 | 13024 ft | 364 kts | 32° |
| 2026-05-06 13:32 | 57.77948 | 12.78736 | 13740 ft | 371 kts | 32° |
| 2026-05-06 13:32 | 57.80082 | 12.81481 | 14542 ft | 373 kts | 33° |
| 2026-05-06 13:32 | 57.82225 | 12.84269 | 15350 ft | 377 kts | 32° |
| 2026-05-06 13:32 | 57.84399 | 12.87091 | 16104 ft | 381 kts | 33° |
| 2026-05-06 13:33 | 57.86596 | 12.89915 | 16817 ft | 385 kts | 32° |
| 2026-05-06 13:33 | 57.88817 | 12.92758 | 17543 ft | 388 kts | 32° |
| 2026-05-06 13:33 | 57.91031 | 12.95604 | 18211 ft | 393 kts | 32° |
| 2026-05-06 13:33 | 57.93298 | 12.98527 | 18846 ft | 397 kts | 32° |
| 2026-05-06 13:34 | 57.95580 | 13.01485 | 19497 ft | 402 kts | 33° |
| 2026-05-06 13:34 | 57.97894 | 13.04494 | 20122 ft | 405 kts | 33° |
| 2026-05-06 13:34 | 58.00221 | 13.07526 | 20759 ft | 409 kts | 33° |
| 2026-05-06 13:34 | 58.02575 | 13.10601 | 21366 ft | 413 kts | 33° |
| 2026-05-06 13:35 | 58.04942 | 13.13696 | 21960 ft | 416 kts | 33° |
| 2026-05-06 13:35 | 58.07303 | 13.16787 | 22476 ft | 420 kts | 33° |
| 2026-05-06 13:35 | 58.09709 | 13.19939 | 23013 ft | 423 kts | 33° |
| 2026-05-06 13:35 | 58.12145 | 13.23135 | 23534 ft | 427 kts | 33° |
| 2026-05-06 13:36 | 58.14588 | 13.26347 | 24079 ft | 430 kts | 33° |
| 2026-05-06 13:36 | 58.17026 | 13.29670 | 24565 ft | 434 kts | 39° |
| 2026-05-06 13:36 | 58.19144 | 13.33794 | 25029 ft | 439 kts | 47° |
| 2026-05-06 13:36 | 58.21128 | 13.38219 | 25500 ft | 442 kts | 49° |
| 2026-05-06 13:37 | 58.23092 | 13.42727 | 25944 ft | 445 kts | 49° |
| 2026-05-06 13:37 | 58.25071 | 13.47279 | 26355 ft | 448 kts | 49° |
| 2026-05-06 13:37 | 58.27071 | 13.51841 | 26757 ft | 451 kts | 49° |
| 2026-05-06 13:37 | 58.29066 | 13.56351 | 27179 ft | 453 kts | 49° |
| 2026-05-06 13:38 | 58.31108 | 13.60938 | 27575 ft | 456 kts | 48° |
| 2026-05-06 13:38 | 58.33167 | 13.65551 | 27958 ft | 459 kts | 48° |
| 2026-05-06 13:38 | 58.35237 | 13.70187 | 28392 ft | 459 kts | 48° |
| 2026-05-06 13:38 | 58.37303 | 13.74818 | 28943 ft | 457 kts | 48° |
| 2026-05-06 13:39 | 58.39354 | 13.79430 | 29501 ft | 455 kts | 48° |
| 2026-05-06 13:39 | 58.41391 | 13.84020 | 30011 ft | 454 kts | 49° |
| 2026-05-06 13:39 | 58.43427 | 13.88622 | 30472 ft | 453 kts | 49° |
| 2026-05-06 13:39 | 58.45426 | 13.93145 | 30919 ft | 452 kts | 49° |
| 2026-05-06 13:40 | 58.47461 | 13.97759 | 30983 ft | 457 kts | 49° |
| 2026-05-06 13:40 | 58.51553 | 14.07064 | 31009 ft | 454 kts | 49° |
| 2026-05-06 13:41 | 58.55584 | 14.16271 | 31004 ft | 451 kts | 49° |
| 2026-05-06 13:41 | 58.59610 | 14.25495 | 30998 ft | 452 kts | 49° |
| 2026-05-06 13:42 | 58.63639 | 14.34770 | 30996 ft | 453 kts | 49° |
| 2026-05-06 13:42 | 58.67636 | 14.44009 | 30994 ft | 454 kts | 49° |
| 2026-05-06 13:43 | 58.71671 | 14.53375 | 31003 ft | 454 kts | 49° |
| 2026-05-06 13:43 | 58.75687 | 14.62734 | 31002 ft | 453 kts | 49° |
| 2026-05-06 13:44 | 58.79690 | 14.72098 | 31000 ft | 452 kts | 49° |
| 2026-05-06 13:44 | 58.83683 | 14.81477 | 31003 ft | 451 kts | 49° |
| 2026-05-06 13:45 | 58.87619 | 14.90760 | 30993 ft | 446 kts | 49° |
| 2026-05-06 13:45 | 58.93458 | 15.04598 | 31003 ft | 443 kts | 49° |
| 2026-05-06 13:46 | 58.95404 | 15.09227 | 30659 ft | 444 kts | 50° |
| 2026-05-06 13:46 | 58.97337 | 15.13836 | 30276 ft | 438 kts | 50° |
| 2026-05-06 13:46 | 58.99255 | 15.18417 | 29832 ft | 435 kts | 50° |
| 2026-05-06 13:46 | 59.01128 | 15.22900 | 29400 ft | 432 kts | 50° |
| 2026-05-06 13:47 | 59.03007 | 15.27405 | 28936 ft | 430 kts | 50° |
| 2026-05-06 13:47 | 59.04884 | 15.31914 | 28463 ft | 427 kts | 50° |
| 2026-05-06 13:47 | 59.06751 | 15.36408 | 27999 ft | 426 kts | 50° |
| 2026-05-06 13:47 | 59.08603 | 15.40877 | 27537 ft | 423 kts | 50° |
| 2026-05-06 13:48 | 59.10446 | 15.45330 | 27076 ft | 421 kts | 50° |
| 2026-05-06 13:48 | 59.12276 | 15.49761 | 26624 ft | 419 kts | 50° |
| 2026-05-06 13:48 | 59.14095 | 15.54173 | 26162 ft | 417 kts | 50° |
| 2026-05-06 13:48 | 59.15903 | 15.58566 | 25687 ft | 415 kts | 50° |
| 2026-05-06 13:49 | 59.17708 | 15.62956 | 25236 ft | 413 kts | 50° |
| 2026-05-06 13:49 | 59.19496 | 15.67316 | 24781 ft | 411 kts | 50° |
| 2026-05-06 13:49 | 59.21252 | 15.71609 | 24310 ft | 409 kts | 50° |
| 2026-05-06 13:49 | 59.23019 | 15.75939 | 23855 ft | 406 kts | 50° |
| 2026-05-06 13:50 | 59.24776 | 15.80252 | 23407 ft | 406 kts | 50° |
| 2026-05-06 13:50 | 59.26533 | 15.84572 | 22956 ft | 407 kts | 50° |
| 2026-05-06 13:50 | 59.28295 | 15.88911 | 22500 ft | 406 kts | 50° |
| 2026-05-06 13:50 | 59.30046 | 15.93232 | 21792 ft | 409 kts | 50° |
| 2026-05-06 13:51 | 59.31850 | 15.97687 | 20500 ft | 425 kts | 50° |
| 2026-05-06 13:51 | 59.33674 | 16.02206 | 20092 ft | 412 kts | 50° |
| 2026-05-06 13:51 | 59.35280 | 16.06727 | 19648 ft | 399 kts | 59° |
| 2026-05-06 13:51 | 59.36573 | 16.11364 | 19227 ft | 387 kts | 61° |
| 2026-05-06 13:52 | 59.37780 | 16.16001 | 18773 ft | 375 kts | 62° |
| 2026-05-06 13:52 | 59.38931 | 16.20510 | 18375 ft | 365 kts | 62° |
| 2026-05-06 13:52 | 59.40055 | 16.24888 | 17961 ft | 356 kts | 62° |
| 2026-05-06 13:52 | 59.41164 | 16.29163 | 17568 ft | 348 kts | 62° |
| 2026-05-06 13:53 | 59.42261 | 16.33361 | 17155 ft | 341 kts | 61° |
| 2026-05-06 13:53 | 59.43334 | 16.37453 | 16776 ft | 336 kts | 62° |
| 2026-05-06 13:53 | 59.44410 | 16.41558 | 16395 ft | 344 kts | 61° |
| 2026-05-06 13:53 | 59.45551 | 16.45894 | 15973 ft | 366 kts | 61° |
| 2026-05-06 13:54 | 59.46749 | 16.50330 | 15523 ft | 367 kts | 59° |
| 2026-05-06 13:54 | 59.48036 | 16.54598 | 15075 ft | 362 kts | 57° |
| 2026-05-06 13:54 | 59.49331 | 16.58765 | 14542 ft | 358 kts | 57° |
| 2026-05-06 13:54 | 59.50629 | 16.62922 | 13922 ft | 356 kts | 57° |
| 2026-05-06 13:55 | 59.51928 | 16.67070 | 13320 ft | 354 kts | 57° |
| 2026-05-06 13:55 | 59.53214 | 16.71181 | 12792 ft | 352 kts | 57° |
| 2026-05-06 13:55 | 59.54493 | 16.75271 | 12287 ft | 349 kts | 57° |
| 2026-05-06 13:55 | 59.55755 | 16.79323 | 11814 ft | 346 kts | 57° |
| 2026-05-06 13:56 | 59.57009 | 16.83353 | 11297 ft | 342 kts | 57° |
| 2026-05-06 13:56 | 59.58252 | 16.87337 | 10776 ft | 340 kts | 57° |
| 2026-05-06 13:56 | 59.59490 | 16.91305 | 10220 ft | 339 kts | 57° |
| 2026-05-06 13:56 | 59.60718 | 16.95250 | 9695 ft | 336 kts | 57° |
| 2026-05-06 13:57 | 59.61921 | 16.99124 | 9184 ft | 334 kts | 57° |
| 2026-05-06 13:57 | 59.63151 | 17.03084 | 8678 ft | 334 kts | 57° |
| 2026-05-06 13:57 | 59.64345 | 17.06937 | 8349 ft | 332 kts | 57° |
| 2026-05-06 13:57 | 59.65538 | 17.10791 | 8064 ft | 327 kts | 57° |
| 2026-05-06 13:58 | 59.66722 | 17.14622 | 7664 ft | 326 kts | 57° |
| 2026-05-06 13:58 | 59.67901 | 17.18449 | 7306 ft | 325 kts | 57° |
| 2026-05-06 13:58 | 59.69065 | 17.22244 | 6926 ft | 323 kts | 57° |
| 2026-05-06 13:58 | 59.70234 | 17.26051 | 6518 ft | 323 kts | 57° |
| 2026-05-06 13:59 | 59.71004 | 17.28562 | 6327 ft | 321 kts | 57° |
| 2026-05-06 13:59 | 59.72219 | 17.32525 | 5929 ft | 319 kts | 57° |
| 2026-05-06 13:59 | 59.73368 | 17.36281 | 5582 ft | 318 kts | 57° |
| 2026-05-06 13:59 | 59.74511 | 17.40012 | 5258 ft | 317 kts | 57° |
| 2026-05-06 14:00 | 59.75648 | 17.43735 | 4967 ft | 314 kts | 57° |
| 2026-05-06 14:00 | 59.76763 | 17.47394 | 4660 ft | 314 kts | 57° |
| 2026-05-06 14:00 | 59.77889 | 17.51084 | 4335 ft | 312 kts | 57° |
| 2026-05-06 14:00 | 59.79010 | 17.54753 | 3990 ft | 310 kts | 57° |
| 2026-05-06 14:01 | 59.80122 | 17.58398 | 3808 ft | 304 kts | 57° |
| 2026-05-06 14:01 | 59.81216 | 17.61876 | 3718 ft | 291 kts | 57° |
| 2026-05-06 14:01 | 59.82243 | 17.65233 | 3573 ft | 280 kts | 57° |
| 2026-05-06 14:01 | 59.83041 | 17.68721 | 3352 ft | 280 kts | 78° |
| 2026-05-06 14:02 | 59.83146 | 17.72537 | 3198 ft | 274 kts | 91° |
| 2026-05-06 14:02 | 59.83095 | 17.76284 | 2890 ft | 276 kts | 92° |
| 2026-05-06 14:02 | 59.83024 | 17.80083 | 2646 ft | 274 kts | 92° |
| 2026-05-06 14:02 | 59.82952 | 17.83797 | 2543 ft | 264 kts | 92° |
| 2026-05-06 14:03 | 59.82890 | 17.87367 | 2505 ft | 252 kts | 92° |
| 2026-05-06 14:03 | 59.82822 | 17.90727 | 2553 ft | 236 kts | 92° |
| 2026-05-06 14:03 | 59.82753 | 17.93967 | 2578 ft | 234 kts | 93° |
| 2026-05-06 14:03 | 59.82558 | 17.97133 | 2510 ft | 228 kts | 111° |
| 2026-05-06 14:04 | 59.81582 | 17.99530 | 2483 ft | 227 kts | 153° |
| 2026-05-06 14:04 | 59.80124 | 18.00259 | 2518 ft | 210 kts | 179° |
| 2026-05-06 14:04 | 59.78702 | 18.00354 | 2570 ft | 201 kts | 181° |
| 2026-05-06 14:04 | 59.77374 | 18.00339 | 2516 ft | 188 kts | 189° |
| 2026-05-06 14:05 | 59.76049 | 17.99951 | 2343 ft | 191 kts | 195° |
| 2026-05-06 14:05 | 59.74735 | 17.99448 | 2052 ft | 190 kts | 193° |
| 2026-05-06 14:05 | 59.73486 | 17.99011 | 1811 ft | 173 kts | 194° |
| 2026-05-06 14:05 | 59.72367 | 17.98609 | 1618 ft | 157 kts | 194° |
| 2026-05-06 14:06 | 59.71335 | 17.98232 | 1382 ft | 145 kts | 195° |
| 2026-05-06 14:06 | 59.70352 | 17.97877 | 1222 ft | 145 kts | 194° |
| 2026-05-06 14:06 | 59.69363 | 17.97511 | 1037 ft | 144 kts | 194° |
| 2026-05-06 14:06 | 59.68375 | 17.97137 | 774 ft | 144 kts | 195° |
| 2026-05-06 14:07 | 59.67394 | 17.96789 | 567 ft | 144 kts | 194° |
| 2026-05-06 14:07 | 59.66426 | 17.96458 | 371 ft | 145 kts | 193° |
| 2026-05-06 14:07 | 59.65448 | 17.96110 | 201 ft | 142 kts | 194° |
| 2026-05-06 14:07 | 59.64474 | 17.95760 | 119 ft | 140 kts | 192° |
| 2026-05-06 14:08 | 59.63616 | 17.95433 | 117 ft | 106 kts | 191° |
| 2026-05-06 14:08 | 59.63136 | 17.95249 | 125 ft | 32 kts | 189° |
| 2026-05-06 14:08 | 59.62951 | 17.95074 | 135 ft | 29 kts | 220° |
| 2026-05-06 14:08 | 59.62865 | 17.94932 | 136 ft | 0 kts | 220° |
| 2026-05-06 14:09 | 59.62853 | 17.94908 | 136 ft | 7 kts | 229° |
| 2026-05-06 14:10 | 59.62853 | 17.94793 | 136 ft | 10 kts | 307° |
| 2026-05-06 14:10 | 59.62890 | 17.94756 | 136 ft | 7 kts | 11° |
| 2026-05-06 14:10 | 59.63048 | 17.94815 | 131 ft | 32 kts | 10° |
| 2026-05-06 14:10 | 59.63272 | 17.94897 | 124 ft | 33 kts | 10° |
| 2026-05-06 14:11 | 59.63498 | 17.94979 | 117 ft | 33 kts | 11° |
| 2026-05-06 14:11 | 59.63726 | 17.95062 | 110 ft | 33 kts | 10° |
| 2026-05-06 14:11 | 59.63946 | 17.95141 | 108 ft | 32 kts | 10° |
| 2026-05-06 14:11 | 59.64160 | 17.95218 | 106 ft | 30 kts | 10° |
| 2026-05-06 14:12 | 59.64349 | 17.95136 | 104 ft | 29 kts | 313° |
| 2026-05-06 14:12 | 59.64397 | 17.94790 | 102 ft | 27 kts | 256° |
| 2026-05-06 14:12 | 59.64310 | 17.94482 | 102 ft | 25 kts | 237° |
| 2026-05-06 14:12 | 59.64220 | 17.94200 | 103 ft | 23 kts | 238° |
| 2026-05-06 14:13 | 59.64136 | 17.93935 | 108 ft | 22 kts | 238° |
| 2026-05-06 14:13 | 59.64054 | 17.93676 | 111 ft | 22 kts | 239° |
| 2026-05-06 14:13 | 59.63987 | 17.93405 | 110 ft | 22 kts | 263° |
| 2026-05-06 14:13 | 59.64031 | 17.93129 | 110 ft | 21 kts | 298° |
| 2026-05-06 14:14 | 59.64080 | 17.92950 | 110 ft | 12 kts | 299° |
| 2026-05-06 14:14 | 59.64144 | 17.92864 | 111 ft | 12 kts | 7° |
| 2026-05-06 14:14 | 59.64218 | 17.92939 | 111 ft | 12 kts | 24° |
| 2026-05-06 14:14 | 59.64290 | 17.93009 | 111 ft | 11 kts | 26° |
| 2026-05-06 14:15 | 59.64298 | 17.93017 | 111 ft | 0 kts | 26° |